sensor_id;sensor_type;location;lat;lon;timestamp;P1;durP1;ratioP1;P2;durP2;ratioP2
15833;SDS011;8017;50.812;4.934;2023-05-10T00:01:22;10.83;;;8.80;;
15833;SDS011;8017;50.812;4.934;2023-05-10T00:04:24;10.77;;;8.17;;
15833;SDS011;8017;50.812;4.934;2023-05-10T00:07:27;12.03;;;8.60;;
15833;SDS011;8017;50.812;4.934;2023-05-10T00:10:29;13.33;;;9.37;;
15833;SDS011;8017;50.812;4.934;2023-05-10T00:13:33;12.07;;;9.33;;
15833;SDS011;8017;50.812;4.934;2023-05-10T00:16:35;16.30;;;10.30;;
15833;SDS011;8017;50.812;4.934;2023-05-10T00:19:37;15.03;;;10.07;;
15833;SDS011;8017;50.812;4.934;2023-05-10T00:22:39;15.47;;;9.90;;
15833;SDS011;8017;50.812;4.934;2023-05-10T00:25:41;11.77;;;10.10;;
15833;SDS011;8017;50.812;4.934;2023-05-10T00:28:44;12.60;;;9.53;;
15833;SDS011;8017;50.812;4.934;2023-05-10T00:31:46;16.63;;;10.73;;
15833;SDS011;8017;50.812;4.934;2023-05-10T00:34:48;16.47;;;10.47;;
15833;SDS011;8017;50.812;4.934;2023-05-10T00:37:51;13.00;;;9.83;;
15833;SDS011;8017;50.812;4.934;2023-05-10T00:40:52;16.87;;;11.53;;
15833;SDS011;8017;50.812;4.934;2023-05-10T00:43:56;12.67;;;10.00;;
15833;SDS011;8017;50.812;4.934;2023-05-10T00:46:58;11.97;;;10.70;;
15833;SDS011;8017;50.812;4.934;2023-05-10T00:50:01;17.63;;;10.60;;
15833;SDS011;8017;50.812;4.934;2023-05-10T00:53:03;16.47;;;10.63;;
15833;SDS011;8017;50.812;4.934;2023-05-10T00:56:05;15.70;;;10.40;;
15833;SDS011;8017;50.812;4.934;2023-05-10T00:59:09;14.70;;;10.67;;
15833;SDS011;8017;50.812;4.934;2023-05-10T01:02:11;11.87;;;9.77;;
15833;SDS011;8017;50.812;4.934;2023-05-10T01:05:13;14.33;;;9.93;;
15833;SDS011;8017;50.812;4.934;2023-05-10T01:08:15;16.27;;;9.67;;
15833;SDS011;8017;50.812;4.934;2023-05-10T01:11:17;11.73;;;9.47;;
15833;SDS011;8017;50.812;4.934;2023-05-10T01:14:20;13.13;;;10.37;;
15833;SDS011;8017;50.812;4.934;2023-05-10T01:17:23;17.87;;;10.67;;
15833;SDS011;8017;50.812;4.934;2023-05-10T01:20:25;17.53;;;10.43;;
15833;SDS011;8017;50.812;4.934;2023-05-10T01:23:33;14.70;;;10.10;;
15833;SDS011;8017;50.812;4.934;2023-05-10T01:34:00;13.07;;;9.87;;
15833;SDS011;8017;50.812;4.934;2023-05-10T01:37:09;13.53;;;10.90;;
15833;SDS011;8017;50.812;4.934;2023-05-10T01:40:16;15.43;;;10.07;;
15833;SDS011;8017;50.812;4.934;2023-05-10T01:43:25;15.47;;;10.53;;
15833;SDS011;8017;50.812;4.934;2023-05-10T01:46:32;13.13;;;10.13;;
15833;SDS011;8017;50.812;4.934;2023-05-10T01:49:39;16.13;;;10.90;;
15833;SDS011;8017;50.812;4.934;2023-05-10T01:52:49;15.77;;;10.93;;
15833;SDS011;8017;50.812;4.934;2023-05-10T01:55:57;16.37;;;11.57;;
15833;SDS011;8017;50.812;4.934;2023-05-10T01:59:02;13.83;;;11.17;;
15833;SDS011;8017;50.812;4.934;2023-05-10T02:02:10;17.20;;;12.13;;
15833;SDS011;8017;50.812;4.934;2023-05-10T02:05:15;18.00;;;12.87;;
15833;SDS011;8017;50.812;4.934;2023-05-10T02:08:18;16.77;;;12.60;;
15833;SDS011;8017;50.812;4.934;2023-05-10T02:11:22;15.83;;;12.43;;
15833;SDS011;8017;50.812;4.934;2023-05-10T02:14:26;16.97;;;12.63;;
15833;SDS011;8017;50.812;4.934;2023-05-10T02:17:28;16.67;;;12.27;;
15833;SDS011;8017;50.812;4.934;2023-05-10T02:20:33;17.57;;;12.97;;
15833;SDS011;8017;50.812;4.934;2023-05-10T02:23:36;19.30;;;13.10;;
15833;SDS011;8017;50.812;4.934;2023-05-10T02:26:38;20.43;;;13.83;;
15833;SDS011;8017;50.812;4.934;2023-05-10T02:29:41;18.30;;;13.03;;
15833;SDS011;8017;50.812;4.934;2023-05-10T02:32:44;19.60;;;13.67;;
15833;SDS011;8017;50.812;4.934;2023-05-10T02:35:49;18.10;;;13.47;;
15833;SDS011;8017;50.812;4.934;2023-05-10T02:38:52;19.87;;;13.77;;
15833;SDS011;8017;50.812;4.934;2023-05-10T02:41:54;17.07;;;13.33;;
15833;SDS011;8017;50.812;4.934;2023-05-10T02:44:59;17.77;;;13.80;;
15833;SDS011;8017;50.812;4.934;2023-05-10T02:48:03;21.00;;;13.27;;
15833;SDS011;8017;50.812;4.934;2023-05-10T02:51:07;20.03;;;14.27;;
15833;SDS011;8017;50.812;4.934;2023-05-10T02:54:10;19.83;;;14.77;;
15833;SDS011;8017;50.812;4.934;2023-05-10T02:57:15;20.07;;;13.97;;
15833;SDS011;8017;50.812;4.934;2023-05-10T03:00:19;19.07;;;14.27;;
15833;SDS011;8017;50.812;4.934;2023-05-10T03:03:21;18.93;;;13.70;;
15833;SDS011;8017;50.812;4.934;2023-05-10T03:06:24;17.70;;;14.87;;
15833;SDS011;8017;50.812;4.934;2023-05-10T03:09:26;16.30;;;14.10;;
15833;SDS011;8017;50.812;4.934;2023-05-10T03:12:31;22.17;;;15.30;;
15833;SDS011;8017;50.812;4.934;2023-05-10T03:15:47;20.00;;;15.17;;
15833;SDS011;8017;50.812;4.934;2023-05-10T03:19:01;20.67;;;15.47;;
15833;SDS011;8017;50.812;4.934;2023-05-10T03:22:10;18.83;;;15.13;;
15833;SDS011;8017;50.812;4.934;2023-05-10T03:25:15;19.87;;;14.90;;
15833;SDS011;8017;50.812;4.934;2023-05-10T03:28:18;20.43;;;15.13;;
15833;SDS011;8017;50.812;4.934;2023-05-10T03:31:21;22.67;;;15.73;;
15833;SDS011;8017;50.812;4.934;2023-05-10T03:34:23;18.67;;;14.90;;
15833;SDS011;8017;50.812;4.934;2023-05-10T03:37:27;19.47;;;14.47;;
15833;SDS011;8017;50.812;4.934;2023-05-10T03:40:29;20.63;;;15.10;;
15833;SDS011;8017;50.812;4.934;2023-05-10T03:43:32;17.47;;;14.97;;
15833;SDS011;8017;50.812;4.934;2023-05-10T03:46:33;18.60;;;15.23;;
15833;SDS011;8017;50.812;4.934;2023-05-10T03:49:35;17.90;;;14.93;;
15833;SDS011;8017;50.812;4.934;2023-05-10T03:52:39;21.40;;;15.30;;
15833;SDS011;8017;50.812;4.934;2023-05-10T03:55:41;19.70;;;15.57;;
15833;SDS011;8017;50.812;4.934;2023-05-10T03:58:43;19.73;;;15.77;;
15833;SDS011;8017;50.812;4.934;2023-05-10T04:01:44;20.50;;;16.57;;
15833;SDS011;8017;50.812;4.934;2023-05-10T04:04:46;24.13;;;16.43;;
15833;SDS011;8017;50.812;4.934;2023-05-10T04:07:50;23.50;;;16.80;;
15833;SDS011;8017;50.812;4.934;2023-05-10T04:10:52;25.00;;;15.73;;
15833;SDS011;8017;50.812;4.934;2023-05-10T04:13:54;21.17;;;16.77;;
15833;SDS011;8017;50.812;4.934;2023-05-10T04:16:56;19.80;;;15.57;;
15833;SDS011;8017;50.812;4.934;2023-05-10T04:19:58;23.00;;;16.00;;
15833;SDS011;8017;50.812;4.934;2023-05-10T04:23:02;21.03;;;15.07;;
15833;SDS011;8017;50.812;4.934;2023-05-10T04:26:04;21.37;;;16.00;;
15833;SDS011;8017;50.812;4.934;2023-05-10T04:29:06;24.50;;;16.00;;
15833;SDS011;8017;50.812;4.934;2023-05-10T04:32:08;21.37;;;17.40;;
15833;SDS011;8017;50.812;4.934;2023-05-10T04:35:10;21.97;;;16.63;;
15833;SDS011;8017;50.812;4.934;2023-05-10T04:38:13;21.80;;;15.63;;
15833;SDS011;8017;50.812;4.934;2023-05-10T04:41:15;21.23;;;15.60;;
15833;SDS011;8017;50.812;4.934;2023-05-10T04:44:17;20.37;;;14.60;;
15833;SDS011;8017;50.812;4.934;2023-05-10T04:47:19;19.83;;;15.60;;
15833;SDS011;8017;50.812;4.934;2023-05-10T04:50:21;20.23;;;15.27;;
15833;SDS011;8017;50.812;4.934;2023-05-10T04:53:24;21.77;;;15.27;;
15833;SDS011;8017;50.812;4.934;2023-05-10T04:56:26;20.60;;;15.47;;
15833;SDS011;8017;50.812;4.934;2023-05-10T04:59:28;14.50;;;12.87;;
15833;SDS011;8017;50.812;4.934;2023-05-10T05:02:30;16.43;;;13.77;;
15833;SDS011;8017;50.812;4.934;2023-05-10T05:05:32;17.13;;;13.43;;
15833;SDS011;8017;50.812;4.934;2023-05-10T05:08:36;16.37;;;13.27;;
15833;SDS011;8017;50.812;4.934;2023-05-10T05:11:37;19.13;;;13.93;;
15833;SDS011;8017;50.812;4.934;2023-05-10T05:14:40;18.53;;;14.80;;
15833;SDS011;8017;50.812;4.934;2023-05-10T05:17:42;20.97;;;15.00;;
15833;SDS011;8017;50.812;4.934;2023-05-10T05:20:44;19.63;;;14.97;;
15833;SDS011;8017;50.812;4.934;2023-05-10T05:23:47;19.90;;;16.50;;
15833;SDS011;8017;50.812;4.934;2023-05-10T05:26:49;21.07;;;16.50;;
15833;SDS011;8017;50.812;4.934;2023-05-10T05:29:52;23.93;;;18.07;;
15833;SDS011;8017;50.812;4.934;2023-05-10T05:32:54;22.40;;;16.83;;
15833;SDS011;8017;50.812;4.934;2023-05-10T05:35:56;21.27;;;16.00;;
15833;SDS011;8017;50.812;4.934;2023-05-10T05:39:00;23.57;;;16.57;;
15833;SDS011;8017;50.812;4.934;2023-05-10T05:42:02;23.90;;;16.93;;
15833;SDS011;8017;50.812;4.934;2023-05-10T05:45:04;22.80;;;17.87;;
15833;SDS011;8017;50.812;4.934;2023-05-10T05:48:07;21.73;;;17.60;;
15833;SDS011;8017;50.812;4.934;2023-05-10T05:51:09;23.20;;;17.83;;
15833;SDS011;8017;50.812;4.934;2023-05-10T05:54:12;24.53;;;19.00;;
15833;SDS011;8017;50.812;4.934;2023-05-10T05:57:14;26.47;;;18.83;;
15833;SDS011;8017;50.812;4.934;2023-05-10T06:00:16;23.87;;;19.20;;
15833;SDS011;8017;50.812;4.934;2023-05-10T06:03:18;25.30;;;19.63;;
15833;SDS011;8017;50.812;4.934;2023-05-10T06:06:20;25.57;;;19.03;;
15833;SDS011;8017;50.812;4.934;2023-05-10T06:09:23;24.27;;;18.60;;
15833;SDS011;8017;50.812;4.934;2023-05-10T06:12:26;26.13;;;20.57;;
15833;SDS011;8017;50.812;4.934;2023-05-10T06:15:27;25.47;;;19.83;;
15833;SDS011;8017;50.812;4.934;2023-05-10T06:18:29;26.63;;;20.50;;
15833;SDS011;8017;50.812;4.934;2023-05-10T06:21:32;26.90;;;19.37;;
15833;SDS011;8017;50.812;4.934;2023-05-10T06:24:35;27.67;;;20.87;;
15833;SDS011;8017;50.812;4.934;2023-05-10T06:27:37;24.80;;;19.80;;
15833;SDS011;8017;50.812;4.934;2023-05-10T06:30:39;24.03;;;20.20;;
15833;SDS011;8017;50.812;4.934;2023-05-10T06:33:41;24.47;;;19.87;;
15833;SDS011;8017;50.812;4.934;2023-05-10T06:36:43;18.97;;;15.73;;
15833;SDS011;8017;50.812;4.934;2023-05-10T06:39:47;16.80;;;13.47;;
15833;SDS011;8017;50.812;4.934;2023-05-10T06:42:48;10.17;;;8.23;;
15833;SDS011;8017;50.812;4.934;2023-05-10T06:45:51;8.60;;;6.67;;
15833;SDS011;8017;50.812;4.934;2023-05-10T06:48:53;6.97;;;4.93;;
15833;SDS011;8017;50.812;4.934;2023-05-10T06:51:55;5.90;;;3.80;;
15833;SDS011;8017;50.812;4.934;2023-05-10T06:54:58;4.43;;;3.20;;
15833;SDS011;8017;50.812;4.934;2023-05-10T06:58:00;3.80;;;3.13;;
15833;SDS011;8017;50.812;4.934;2023-05-10T07:01:02;3.33;;;2.17;;
15833;SDS011;8017;50.812;4.934;2023-05-10T07:04:05;2.03;;;1.77;;
15833;SDS011;8017;50.812;4.934;2023-05-10T07:07:07;1.90;;;1.80;;
15833;SDS011;8017;50.812;4.934;2023-05-10T07:10:11;1.63;;;1.30;;
15833;SDS011;8017;50.812;4.934;2023-05-10T07:13:13;1.87;;;1.63;;
15833;SDS011;8017;50.812;4.934;2023-05-10T07:16:15;1.97;;;1.60;;
15833;SDS011;8017;50.812;4.934;2023-05-10T07:19:17;2.57;;;2.20;;
15833;SDS011;8017;50.812;4.934;2023-05-10T07:22:19;2.67;;;1.90;;
15833;SDS011;8017;50.812;4.934;2023-05-10T07:25:22;1.73;;;1.63;;
15833;SDS011;8017;50.812;4.934;2023-05-10T07:28:24;3.03;;;2.00;;
15833;SDS011;8017;50.812;4.934;2023-05-10T07:31:26;3.80;;;2.23;;
15833;SDS011;8017;50.812;4.934;2023-05-10T07:34:28;2.97;;;2.40;;
15833;SDS011;8017;50.812;4.934;2023-05-10T07:37:31;3.43;;;2.00;;
15833;SDS011;8017;50.812;4.934;2023-05-10T07:40:35;2.83;;;2.13;;
15833;SDS011;8017;50.812;4.934;2023-05-10T07:43:36;2.47;;;1.83;;
15833;SDS011;8017;50.812;4.934;2023-05-10T07:46:40;5.77;;;5.27;;
15833;SDS011;8017;50.812;4.934;2023-05-10T07:49:41;2.80;;;2.23;;
15833;SDS011;8017;50.812;4.934;2023-05-10T07:52:43;1.87;;;1.60;;
15833;SDS011;8017;50.812;4.934;2023-05-10T07:55:51;3.33;;;2.00;;
15833;SDS011;8017;50.812;4.934;2023-05-10T07:58:55;2.00;;;1.80;;
15833;SDS011;8017;50.812;4.934;2023-05-10T08:01:57;3.30;;;2.00;;
15833;SDS011;8017;50.812;4.934;2023-05-10T08:04:59;2.87;;;1.87;;
15833;SDS011;8017;50.812;4.934;2023-05-10T08:08:01;3.20;;;2.00;;
15833;SDS011;8017;50.812;4.934;2023-05-10T08:11:05;2.07;;;1.97;;
15833;SDS011;8017;50.812;4.934;2023-05-10T08:14:07;5.67;;;2.37;;
15833;SDS011;8017;50.812;4.934;2023-05-10T08:17:09;3.77;;;2.50;;
15833;SDS011;8017;50.812;4.934;2023-05-10T08:20:11;4.03;;;2.33;;
15833;SDS011;8017;50.812;4.934;2023-05-10T08:23:16;3.23;;;2.30;;
15833;SDS011;8017;50.812;4.934;2023-05-10T08:26:20;2.17;;;2.07;;
15833;SDS011;8017;50.812;4.934;2023-05-10T08:29:22;4.57;;;2.60;;
15833;SDS011;8017;50.812;4.934;2023-05-10T08:32:23;8.60;;;2.70;;
15833;SDS011;8017;50.812;4.934;2023-05-10T08:35:25;5.23;;;4.27;;
15833;SDS011;8017;50.812;4.934;2023-05-10T08:38:27;6.77;;;3.83;;
15833;SDS011;8017;50.812;4.934;2023-05-10T08:41:31;6.63;;;4.43;;
15833;SDS011;8017;50.812;4.934;2023-05-10T08:44:35;5.03;;;4.27;;
15833;SDS011;8017;50.812;4.934;2023-05-10T08:47:38;6.43;;;4.43;;
15833;SDS011;8017;50.812;4.934;2023-05-10T08:50:40;6.37;;;4.63;;
15833;SDS011;8017;50.812;4.934;2023-05-10T08:53:44;5.13;;;4.63;;
15833;SDS011;8017;50.812;4.934;2023-05-10T08:56:48;8.20;;;5.07;;
15833;SDS011;8017;50.812;4.934;2023-05-10T08:59:50;8.73;;;5.57;;
15833;SDS011;8017;50.812;4.934;2023-05-10T09:02:52;8.40;;;5.43;;
15833;SDS011;8017;50.812;4.934;2023-05-10T09:05:54;5.80;;;5.30;;
15833;SDS011;8017;50.812;4.934;2023-05-10T09:08:57;5.33;;;4.77;;
15833;SDS011;8017;50.812;4.934;2023-05-10T09:12:01;5.77;;;5.10;;
15833;SDS011;8017;50.812;4.934;2023-05-10T09:15:03;5.30;;;4.80;;
15833;SDS011;8017;50.812;4.934;2023-05-10T09:18:06;8.73;;;6.80;;
15833;SDS011;8017;50.812;4.934;2023-05-10T09:21:08;5.27;;;4.77;;
15833;SDS011;8017;50.812;4.934;2023-05-10T09:24:12;5.90;;;5.30;;
15833;SDS011;8017;50.812;4.934;2023-05-10T09:27:15;5.70;;;5.10;;
15833;SDS011;8017;50.812;4.934;2023-05-10T09:30:18;5.90;;;4.77;;
15833;SDS011;8017;50.812;4.934;2023-05-10T09:33:25;4.57;;;4.10;;
15833;SDS011;8017;50.812;4.934;2023-05-10T09:36:27;4.77;;;3.93;;
15833;SDS011;8017;50.812;4.934;2023-05-10T09:39:30;6.00;;;5.40;;
15833;SDS011;8017;50.812;4.934;2023-05-10T09:42:34;4.07;;;3.40;;
15833;SDS011;8017;50.812;4.934;2023-05-10T09:45:36;3.60;;;3.30;;
15833;SDS011;8017;50.812;4.934;2023-05-10T09:48:40;3.00;;;2.70;;
15833;SDS011;8017;50.812;4.934;2023-05-10T09:51:44;2.23;;;2.03;;
15833;SDS011;8017;50.812;4.934;2023-05-10T09:54:52;2.80;;;2.17;;
15833;SDS011;8017;50.812;4.934;2023-05-10T09:58:00;2.30;;;2.10;;
15833;SDS011;8017;50.812;4.934;2023-05-10T10:01:04;2.03;;;1.90;;
15833;SDS011;8017;50.812;4.934;2023-05-10T10:04:11;2.70;;;2.20;;
15833;SDS011;8017;50.812;4.934;2023-05-10T10:07:13;3.37;;;1.77;;
15833;SDS011;8017;50.812;4.934;2023-05-10T10:10:15;2.27;;;1.40;;
15833;SDS011;8017;50.812;4.934;2023-05-10T10:13:19;1.97;;;1.50;;
15833;SDS011;8017;50.812;4.934;2023-05-10T10:16:21;2.17;;;1.80;;
15833;SDS011;8017;50.812;4.934;2023-05-10T10:19:24;2.30;;;1.87;;
15833;SDS011;8017;50.812;4.934;2023-05-10T10:22:26;1.90;;;1.70;;
15833;SDS011;8017;50.812;4.934;2023-05-10T10:25:28;1.50;;;1.40;;
15833;SDS011;8017;50.812;4.934;2023-05-10T10:28:34;1.80;;;1.53;;
15833;SDS011;8017;50.812;4.934;2023-05-10T10:31:45;1.43;;;1.33;;
15833;SDS011;8017;50.812;4.934;2023-05-10T10:34:50;1.97;;;1.60;;
15833;SDS011;8017;50.812;4.934;2023-05-10T10:37:53;3.17;;;1.87;;
15833;SDS011;8017;50.812;4.934;2023-05-10T10:41:01;1.50;;;1.40;;
15833;SDS011;8017;50.812;4.934;2023-05-10T10:47:41;1.70;;;1.30;;
15833;SDS011;8017;50.812;4.934;2023-05-10T10:50:44;1.43;;;1.33;;
15833;SDS011;8017;50.812;4.934;2023-05-10T10:53:47;2.50;;;1.40;;
15833;SDS011;8017;50.812;4.934;2023-05-10T10:57:03;1.40;;;1.30;;
15833;SDS011;8017;50.812;4.934;2023-05-10T11:03:38;1.53;;;1.40;;
15833;SDS011;8017;50.812;4.934;2023-05-10T11:06:40;2.00;;;1.70;;
15833;SDS011;8017;50.812;4.934;2023-05-10T11:09:42;2.00;;;1.50;;
15833;SDS011;8017;50.812;4.934;2023-05-10T11:12:51;2.77;;;1.50;;
15833;SDS011;8017;50.812;4.934;2023-05-10T11:15:55;1.20;;;1.10;;
15833;SDS011;8017;50.812;4.934;2023-05-10T11:18:59;1.30;;;1.20;;
15833;SDS011;8017;50.812;4.934;2023-05-10T11:22:12;2.07;;;1.30;;
15833;SDS011;8017;50.812;4.934;2023-05-10T11:25:15;1.13;;;0.80;;
15833;SDS011;8017;50.812;4.934;2023-05-10T11:28:17;0.80;;;0.80;;
15833;SDS011;8017;50.812;4.934;2023-05-10T11:31:22;1.80;;;1.30;;
15833;SDS011;8017;50.812;4.934;2023-05-10T11:34:26;1.77;;;1.27;;
15833;SDS011;8017;50.812;4.934;2023-05-10T11:37:30;1.73;;;1.20;;
15833;SDS011;8017;50.812;4.934;2023-05-10T11:40:34;1.33;;;1.13;;
15833;SDS011;8017;50.812;4.934;2023-05-10T11:43:36;1.80;;;1.00;;
15833;SDS011;8017;50.812;4.934;2023-05-10T11:46:41;1.23;;;1.13;;
15833;SDS011;8017;50.812;4.934;2023-05-10T11:49:43;1.50;;;1.40;;
15833;SDS011;8017;50.812;4.934;2023-05-10T11:52:45;1.47;;;1.37;;
15833;SDS011;8017;50.812;4.934;2023-05-10T11:55:52;3.00;;;1.60;;
15833;SDS011;8017;50.812;4.934;2023-05-10T11:58:54;2.03;;;1.93;;
15833;SDS011;8017;50.812;4.934;2023-05-10T12:01:59;2.33;;;1.60;;
15833;SDS011;8017;50.812;4.934;2023-05-10T12:05:03;1.37;;;1.27;;
15833;SDS011;8017;50.812;4.934;2023-05-10T12:08:12;1.77;;;1.30;;
15833;SDS011;8017;50.812;4.934;2023-05-10T12:11:15;1.50;;;1.40;;
15833;SDS011;8017;50.812;4.934;2023-05-10T12:14:17;1.33;;;1.23;;
15833;SDS011;8017;50.812;4.934;2023-05-10T12:17:23;0.93;;;0.83;;
15833;SDS011;8017;50.812;4.934;2023-05-10T12:20:28;1.50;;;1.00;;
15833;SDS011;8017;50.812;4.934;2023-05-10T12:23:30;0.80;;;0.80;;
15833;SDS011;8017;50.812;4.934;2023-05-10T12:26:32;1.47;;;1.23;;
15833;SDS011;8017;50.812;4.934;2023-05-10T12:29:36;1.10;;;1.10;;
15833;SDS011;8017;50.812;4.934;2023-05-10T12:32:41;1.77;;;1.67;;
15833;SDS011;8017;50.812;4.934;2023-05-10T12:35:45;1.80;;;1.57;;
15833;SDS011;8017;50.812;4.934;2023-05-10T12:38:48;1.50;;;1.40;;
15833;SDS011;8017;50.812;4.934;2023-05-10T12:41:52;1.63;;;1.53;;
15833;SDS011;8017;50.812;4.934;2023-05-10T12:44:55;1.80;;;1.70;;
15833;SDS011;8017;50.812;4.934;2023-05-10T12:47:58;2.10;;;1.90;;
15833;SDS011;8017;50.812;4.934;2023-05-10T12:51:00;2.30;;;2.10;;
15833;SDS011;8017;50.812;4.934;2023-05-10T12:54:03;2.00;;;1.80;;
15833;SDS011;8017;50.812;4.934;2023-05-10T12:57:05;1.73;;;1.57;;
15833;SDS011;8017;50.812;4.934;2023-05-10T13:00:07;1.90;;;1.80;;
15833;SDS011;8017;50.812;4.934;2023-05-10T13:03:11;2.27;;;2.07;;
15833;SDS011;8017;50.812;4.934;2023-05-10T13:06:13;2.83;;;1.70;;
15833;SDS011;8017;50.812;4.934;2023-05-10T13:09:15;2.10;;;1.93;;
15833;SDS011;8017;50.812;4.934;2023-05-10T13:12:17;3.20;;;2.40;;
15833;SDS011;8017;50.812;4.934;2023-05-10T13:15:19;2.30;;;2.10;;
15833;SDS011;8017;50.812;4.934;2023-05-10T13:18:22;4.80;;;2.47;;
15833;SDS011;8017;50.812;4.934;2023-05-10T13:21:26;4.50;;;2.10;;
15833;SDS011;8017;50.812;4.934;2023-05-10T13:24:28;2.50;;;2.23;;
15833;SDS011;8017;50.812;4.934;2023-05-10T13:27:30;2.67;;;2.40;;
15833;SDS011;8017;50.812;4.934;2023-05-10T13:30:32;3.10;;;2.10;;
15833;SDS011;8017;50.812;4.934;2023-05-10T13:33:35;2.30;;;2.10;;
15833;SDS011;8017;50.812;4.934;2023-05-10T13:36:37;2.90;;;2.37;;
15833;SDS011;8017;50.812;4.934;2023-05-10T13:39:39;1.90;;;1.80;;
15833;SDS011;8017;50.812;4.934;2023-05-10T13:42:41;2.30;;;2.10;;
15833;SDS011;8017;50.812;4.934;2023-05-10T13:45:43;2.57;;;2.00;;
15833;SDS011;8017;50.812;4.934;2023-05-10T13:48:47;2.60;;;1.90;;
15833;SDS011;8017;50.812;4.934;2023-05-10T13:51:49;1.90;;;1.80;;
15833;SDS011;8017;50.812;4.934;2023-05-10T13:54:51;1.87;;;1.67;;
15833;SDS011;8017;50.812;4.934;2023-05-10T13:57:54;2.57;;;2.00;;
15833;SDS011;8017;50.812;4.934;2023-05-10T14:00:56;2.00;;;1.60;;
15833;SDS011;8017;50.812;4.934;2023-05-10T14:04:01;2.47;;;2.00;;
15833;SDS011;8017;50.812;4.934;2023-05-10T14:07:03;2.43;;;2.20;;
15833;SDS011;8017;50.812;4.934;2023-05-10T14:10:05;3.73;;;2.10;;
15833;SDS011;8017;50.812;4.934;2023-05-10T14:13:08;3.30;;;2.50;;
15833;SDS011;8017;50.812;4.934;2023-05-10T14:16:10;2.63;;;2.43;;
15833;SDS011;8017;50.812;4.934;2023-05-10T14:19:13;3.23;;;2.50;;
15833;SDS011;8017;50.812;4.934;2023-05-10T14:22:15;3.13;;;2.73;;
15833;SDS011;8017;50.812;4.934;2023-05-10T14:25:18;3.33;;;2.87;;
15833;SDS011;8017;50.812;4.934;2023-05-10T14:28:20;4.33;;;2.93;;
15833;SDS011;8017;50.812;4.934;2023-05-10T14:31:23;3.00;;;2.70;;
15833;SDS011;8017;50.812;4.934;2023-05-10T14:34:27;3.30;;;3.00;;
15833;SDS011;8017;50.812;4.934;2023-05-10T14:37:28;2.87;;;2.57;;
15833;SDS011;8017;50.812;4.934;2023-05-10T14:40:31;3.07;;;2.77;;
15833;SDS011;8017;50.812;4.934;2023-05-10T14:43:33;3.30;;;2.80;;
15833;SDS011;8017;50.812;4.934;2023-05-10T14:46:35;4.43;;;3.70;;
15833;SDS011;8017;50.812;4.934;2023-05-10T14:49:39;4.20;;;3.30;;
15833;SDS011;8017;50.812;4.934;2023-05-10T14:52:41;4.70;;;4.03;;
15833;SDS011;8017;50.812;4.934;2023-05-10T14:55:43;3.97;;;3.53;;
15833;SDS011;8017;50.812;4.934;2023-05-10T14:58:45;4.70;;;3.57;;
15833;SDS011;8017;50.812;4.934;2023-05-10T15:01:47;4.60;;;4.00;;
15833;SDS011;8017;50.812;4.934;2023-05-10T15:04:51;5.33;;;4.70;;
15833;SDS011;8017;50.812;4.934;2023-05-10T15:07:53;4.57;;;3.83;;
15833;SDS011;8017;50.812;4.934;2023-05-10T15:10:54;5.77;;;3.80;;
15833;SDS011;8017;50.812;4.934;2023-05-10T15:13:56;5.43;;;4.50;;
15833;SDS011;8017;50.812;4.934;2023-05-10T15:16:58;7.93;;;5.00;;
15833;SDS011;8017;50.812;4.934;2023-05-10T15:20:02;5.63;;;4.93;;
15833;SDS011;8017;50.812;4.934;2023-05-10T15:23:04;6.53;;;4.77;;
15833;SDS011;8017;50.812;4.934;2023-05-10T15:26:06;6.23;;;5.30;;
15833;SDS011;8017;50.812;4.934;2023-05-10T15:29:08;6.20;;;5.10;;
15833;SDS011;8017;50.812;4.934;2023-05-10T15:32:10;6.73;;;5.00;;
15833;SDS011;8017;50.812;4.934;2023-05-10T15:35:13;6.37;;;4.63;;
15833;SDS011;8017;50.812;4.934;2023-05-10T15:38:16;5.57;;;4.03;;
15833;SDS011;8017;50.812;4.934;2023-05-10T15:41:18;5.20;;;4.30;;
15833;SDS011;8017;50.812;4.934;2023-05-10T15:44:20;5.87;;;4.20;;
15833;SDS011;8017;50.812;4.934;2023-05-10T15:47:23;4.90;;;4.27;;
15833;SDS011;8017;50.812;4.934;2023-05-10T15:50:26;5.93;;;4.83;;
15833;SDS011;8017;50.812;4.934;2023-05-10T15:53:28;4.37;;;3.97;;
15833;SDS011;8017;50.812;4.934;2023-05-10T15:56:30;5.60;;;4.10;;
15833;SDS011;8017;50.812;4.934;2023-05-10T15:59:32;5.60;;;4.00;;
15833;SDS011;8017;50.812;4.934;2023-05-10T16:02:35;5.57;;;3.70;;
15833;SDS011;8017;50.812;4.934;2023-05-10T16:05:38;5.77;;;3.73;;
15833;SDS011;8017;50.812;4.934;2023-05-10T16:08:40;4.53;;;4.13;;
15833;SDS011;8017;50.812;4.934;2023-05-10T16:11:42;7.03;;;4.70;;
15833;SDS011;8017;50.812;4.934;2023-05-10T16:14:45;5.93;;;5.03;;
15833;SDS011;8017;50.812;4.934;2023-05-10T16:17:47;7.03;;;5.07;;
15833;SDS011;8017;50.812;4.934;2023-05-10T16:20:50;6.43;;;5.80;;
15833;SDS011;8017;50.812;4.934;2023-05-10T16:23:52;6.67;;;5.17;;
15833;SDS011;8017;50.812;4.934;2023-05-10T16:26:55;8.43;;;5.57;;
15833;SDS011;8017;50.812;4.934;2023-05-10T16:29:56;7.83;;;4.80;;
15833;SDS011;8017;50.812;4.934;2023-05-10T16:32:59;8.30;;;5.17;;
15833;SDS011;8017;50.812;4.934;2023-05-10T16:36:03;8.80;;;5.27;;
15833;SDS011;8017;50.812;4.934;2023-05-10T16:39:05;5.90;;;4.60;;
15833;SDS011;8017;50.812;4.934;2023-05-10T16:42:08;8.63;;;4.20;;
15833;SDS011;8017;50.812;4.934;2023-05-10T16:45:10;8.77;;;4.73;;
15833;SDS011;8017;50.812;4.934;2023-05-10T16:48:12;7.83;;;4.17;;
15833;SDS011;8017;50.812;4.934;2023-05-10T16:51:16;8.23;;;4.87;;
15833;SDS011;8017;50.812;4.934;2023-05-10T16:54:17;7.30;;;4.03;;
15833;SDS011;8017;50.812;4.934;2023-05-10T16:57:20;8.70;;;4.90;;
15833;SDS011;8017;50.812;4.934;2023-05-10T17:00:22;9.03;;;4.37;;
15833;SDS011;8017;50.812;4.934;2023-05-10T17:03:24;8.73;;;4.07;;
15833;SDS011;8017;50.812;4.934;2023-05-10T17:06:28;10.00;;;5.00;;
15833;SDS011;8017;50.812;4.934;2023-05-10T17:09:31;9.47;;;4.20;;
15833;SDS011;8017;50.812;4.934;2023-05-10T17:12:33;10.07;;;4.17;;
15833;SDS011;8017;50.812;4.934;2023-05-10T17:15:35;11.23;;;4.27;;
15833;SDS011;8017;50.812;4.934;2023-05-10T17:18:37;7.57;;;3.97;;
15833;SDS011;8017;50.812;4.934;2023-05-10T17:21:42;8.80;;;3.97;;
15833;SDS011;8017;50.812;4.934;2023-05-10T17:24:44;10.73;;;4.33;;
15833;SDS011;8017;50.812;4.934;2023-05-10T17:27:46;9.63;;;4.17;;
15833;SDS011;8017;50.812;4.934;2023-05-10T17:30:53;10.20;;;4.60;;
15833;SDS011;8017;50.812;4.934;2023-05-10T17:33:56;8.50;;;4.47;;
15833;SDS011;8017;50.812;4.934;2023-05-10T17:36:59;8.80;;;4.47;;
15833;SDS011;8017;50.812;4.934;2023-05-10T17:40:01;10.37;;;4.97;;
15833;SDS011;8017;50.812;4.934;2023-05-10T17:43:06;6.60;;;4.33;;
15833;SDS011;8017;50.812;4.934;2023-05-10T17:46:08;7.10;;;4.50;;
15833;SDS011;8017;50.812;4.934;2023-05-10T17:49:10;8.43;;;4.07;;
15833;SDS011;8017;50.812;4.934;2023-05-10T17:52:13;8.40;;;4.50;;
15833;SDS011;8017;50.812;4.934;2023-05-10T17:55:15;8.00;;;4.83;;
15833;SDS011;8017;50.812;4.934;2023-05-10T17:58:17;7.83;;;5.07;;
15833;SDS011;8017;50.812;4.934;2023-05-10T18:01:19;8.73;;;5.10;;
15833;SDS011;8017;50.812;4.934;2023-05-10T18:04:21;11.03;;;6.13;;
15833;SDS011;8017;50.812;4.934;2023-05-10T18:07:28;11.80;;;5.67;;
15833;SDS011;8017;50.812;4.934;2023-05-10T18:10:39;12.93;;;5.70;;
15833;SDS011;8017;50.812;4.934;2023-05-10T18:13:50;10.43;;;5.83;;
15833;SDS011;8017;50.812;4.934;2023-05-10T18:16:57;10.07;;;5.57;;
15833;SDS011;8017;50.812;4.934;2023-05-10T18:20:05;10.03;;;5.50;;
15833;SDS011;8017;50.812;4.934;2023-05-10T18:23:13;13.10;;;6.30;;
15833;SDS011;8017;50.812;4.934;2023-05-10T18:26:20;10.77;;;6.13;;
15833;SDS011;8017;50.812;4.934;2023-05-10T18:29:29;9.97;;;5.70;;
15833;SDS011;8017;50.812;4.934;2023-05-10T18:32:44;12.30;;;6.30;;
15833;SDS011;8017;50.812;4.934;2023-05-10T18:35:51;11.27;;;6.60;;
15833;SDS011;8017;50.812;4.934;2023-05-10T18:39:06;9.87;;;6.70;;
15833;SDS011;8017;50.812;4.934;2023-05-10T18:42:13;13.70;;;6.50;;